createdAt,value
2023-08-12T00:00:13.358Z,9.07
2023-08-12T00:02:47.740Z,5.68
2023-08-12T00:05:16.391Z,10.93
2023-08-12T00:07:46.125Z,7.88
2023-08-12T00:10:14.864Z,6.57
2023-08-12T00:12:43.688Z,7.28
2023-08-12T00:15:15.021Z,6.28
2023-08-12T00:17:45.507Z,6.15
2023-08-12T00:20:14.202Z,10.32
2023-08-12T00:22:43.169Z,8.73
2023-08-12T00:25:13.130Z,8.65
2023-08-12T00:27:41.732Z,7.72
2023-08-12T00:30:11.198Z,7.22
2023-08-12T00:32:42.110Z,6.95
2023-08-12T00:35:11.346Z,5.78
2023-08-12T00:37:39.821Z,8.73
2023-08-12T00:40:13.620Z,8.18
2023-08-12T00:42:42.166Z,7.72
2023-08-12T00:45:13.979Z,7.15
2023-08-12T00:47:46.912Z,5.60
2023-08-12T00:50:17.015Z,6.43
2023-08-12T00:52:46.383Z,6.75
2023-08-12T00:55:17.616Z,6.70
2023-08-12T00:57:47.982Z,6.32
2023-08-12T01:00:18.215Z,7.00
2023-08-12T01:02:49.835Z,6.30
2023-08-12T01:05:21.189Z,7.22
2023-08-12T01:07:52.094Z,8.48
2023-08-12T01:10:25.522Z,6.45
2023-08-12T01:12:59.503Z,7.97
2023-08-12T01:15:31.123Z,8.75
2023-08-12T01:18:04.482Z,7.32
2023-08-12T01:20:33.329Z,9.15
2023-08-12T01:23:12.140Z,7.10
2023-08-12T01:25:40.792Z,9.20
2023-08-12T01:28:09.330Z,10.00
2023-08-12T01:30:51.691Z,9.70
2023-08-12T01:33:30.699Z,8.45
2023-08-12T01:36:07.127Z,10.63
2023-08-12T01:38:39.143Z,12.15
2023-08-12T01:41:09.285Z,9.20
2023-08-12T01:43:39.900Z,7.53
2023-08-12T01:46:10.624Z,12.95
2023-08-12T01:48:39.306Z,8.68
2023-08-12T01:51:08.130Z,9.32
2023-08-12T01:53:38.033Z,10.38
2023-08-12T01:56:07.181Z,7.20
2023-08-12T01:58:35.560Z,7.47
2023-08-12T02:01:04.317Z,9.18
2023-08-12T02:03:32.868Z,10.98
2023-08-12T02:06:01.302Z,9.07
2023-08-12T02:08:29.833Z,7.90
2023-08-12T02:11:03.601Z,6.90
2023-08-12T02:13:32.600Z,7.28
2023-08-12T02:16:03.772Z,11.27
2023-08-12T02:18:32.378Z,8.93
2023-08-12T02:21:00.754Z,8.45
2023-08-12T02:23:29.509Z,8.95
2023-08-12T02:26:01.409Z,13.98
2023-08-12T02:28:30.039Z,7.57
2023-08-12T02:30:58.667Z,13.07
2023-08-12T02:33:27.438Z,15.05
2023-08-12T02:35:56.873Z,10.75
2023-08-12T02:38:27.357Z,10.73
2023-08-12T02:40:56.679Z,11.05
2023-08-12T02:43:28.758Z,11.50
2023-08-12T02:45:57.505Z,10.20
2023-08-12T02:48:26.046Z,9.52
2023-08-12T02:50:54.646Z,10.68
2023-08-12T02:53:23.053Z,11.50
2023-08-12T02:55:51.855Z,7.65
2023-08-12T02:58:20.498Z,9.45
2023-08-12T03:00:50.593Z,8.38
2023-08-12T03:03:19.620Z,10.52
2023-08-12T03:05:49.046Z,7.15
2023-08-12T03:08:20.339Z,9.60
2023-08-12T03:10:52.050Z,8.77
2023-08-12T03:13:20.603Z,9.20
2023-08-12T03:15:51.843Z,10.07
2023-08-12T03:18:21.057Z,6.10
2023-08-12T03:20:49.972Z,9.18
2023-08-12T03:23:18.949Z,8.85
2023-08-12T03:25:49.845Z,14.05
2023-08-12T03:28:19.032Z,11.57
2023-08-12T03:30:54.924Z,10.32
2023-08-12T03:33:26.773Z,8.57
2023-08-12T03:35:57.353Z,10.32
2023-08-12T03:38:26.510Z,9.65
2023-08-12T03:40:58.384Z,10.65
2023-08-12T03:43:28.205Z,10.73
2023-08-12T03:45:59.975Z,10.13
2023-08-12T03:48:29.454Z,8.82
2023-08-12T03:50:59.406Z,11.45
2023-08-12T03:53:27.917Z,11.55
2023-08-12T03:55:57.619Z,10.05
2023-08-12T03:58:27.215Z,12.52
2023-08-12T04:00:58.061Z,8.30
2023-08-12T04:03:27.181Z,10.65
2023-08-12T04:05:58.883Z,8.48
2023-08-12T04:08:27.552Z,10.00
2023-08-12T04:10:56.402Z,11.93
2023-08-12T04:13:30.193Z,13.18
2023-08-12T04:16:00.355Z,11.25
2023-08-12T04:18:28.719Z,10.77
2023-08-12T04:20:59.536Z,10.77
2023-08-12T04:23:28.133Z,9.80
2023-08-12T04:25:58.076Z,8.48
2023-08-12T04:28:30.887Z,9.80
2023-08-12T04:31:00.824Z,7.90
2023-08-12T04:33:31.764Z,10.10
2023-08-12T04:36:00.710Z,28.48
2023-08-12T04:38:35.502Z,9.57
2023-08-12T04:41:07.802Z,21.60
2023-08-12T04:43:38.576Z,21.20
2023-08-12T04:46:09.477Z,43.97
2023-08-12T04:48:38.608Z,43.05
2023-08-12T04:51:09.697Z,71.22
2023-08-12T04:53:38.088Z,35.53
2023-08-12T04:56:08.492Z,16.40
2023-08-12T04:58:37.330Z,16.00
2023-08-12T05:01:06.534Z,13.93
2023-08-12T05:03:36.488Z,11.35
2023-08-12T05:06:08.112Z,9.27
2023-08-12T05:08:40.469Z,10.73
2023-08-12T05:11:08.882Z,15.73
2023-08-12T05:13:37.259Z,13.80
2023-08-12T05:16:06.486Z,14.73
2023-08-12T05:18:36.360Z,9.50
2023-08-12T05:21:04.882Z,9.13
2023-08-12T05:23:33.749Z,9.35
2023-08-12T05:26:02.159Z,9.32
2023-08-12T05:28:30.571Z,11.25
2023-08-12T05:31:00.659Z,7.63
2023-08-12T05:33:29.943Z,8.23
2023-08-12T05:35:59.997Z,8.73
2023-08-12T05:38:28.445Z,6.90
2023-08-12T05:40:57.116Z,6.65
2023-08-12T05:43:27.627Z,14.07
2023-08-12T05:45:56.062Z,11.32
2023-08-12T05:48:24.782Z,11.57
2023-08-12T05:50:53.377Z,8.80
2023-08-12T05:53:24.045Z,10.00
2023-08-12T05:55:52.542Z,6.28
2023-08-12T05:58:21.674Z,10.50
2023-08-12T06:00:51.366Z,11.05
2023-08-12T06:03:20.050Z,8.27
2023-08-12T06:05:51.647Z,11.77
2023-08-12T06:08:20.555Z,8.73
2023-08-12T06:10:50.529Z,8.73
2023-08-12T06:13:19.166Z,12.35
2023-08-12T06:15:47.745Z,15.35
2023-08-12T06:18:16.173Z,11.65
2023-08-12T06:20:44.634Z,15.07
2023-08-12T06:23:13.311Z,11.73
2023-08-12T06:25:44.120Z,11.27
2023-08-12T06:28:14.075Z,10.55
2023-08-12T06:30:42.578Z,8.52
2023-08-12T06:33:11.173Z,8.75
2023-08-12T06:35:41.109Z,10.15
2023-08-12T06:38:10.952Z,9.18
2023-08-12T06:40:41.028Z,8.18
2023-08-12T06:43:10.053Z,11.80
2023-08-12T06:45:39.963Z,7.50
2023-08-12T06:48:08.846Z,6.82
2023-08-12T06:50:37.241Z,21.67
2023-08-12T06:53:06.220Z,24.65
2023-08-12T06:55:34.762Z,8.73
2023-08-12T06:58:05.986Z,14.18
2023-08-12T07:00:35.477Z,10.50
2023-08-12T07:03:07.090Z,9.27
2023-08-12T07:05:35.557Z,6.30
2023-08-12T07:08:04.544Z,16.95
2023-08-12T07:10:33.008Z,7.68
2023-08-12T07:13:01.454Z,11.13
2023-08-12T07:15:30.149Z,12.00
2023-08-12T07:17:58.845Z,7.35
2023-08-12T07:20:28.869Z,6.68
2023-08-12T07:22:57.823Z,6.97
2023-08-12T07:25:26.403Z,7.75
2023-08-12T07:27:55.125Z,4.82
2023-08-12T07:30:23.534Z,8.02
2023-08-12T07:32:53.166Z,7.90
2023-08-12T07:35:21.981Z,5.63
2023-08-12T07:37:52.935Z,15.20
2023-08-12T07:40:21.824Z,11.63
2023-08-12T07:42:50.622Z,5.53
2023-08-12T07:45:19.449Z,6.30
2023-08-12T07:47:47.961Z,8.25
2023-08-12T07:50:16.526Z,12.18
2023-08-12T07:52:45.124Z,9.95
2023-08-12T07:55:15.247Z,6.82
2023-08-12T07:57:44.348Z,7.75
2023-08-12T08:00:14.282Z,8.57
2023-08-12T08:02:43.460Z,10.20
2023-08-12T08:05:12.002Z,7.05
2023-08-12T08:07:40.634Z,6.30
2023-08-12T08:10:14.510Z,7.97
2023-08-12T08:12:44.321Z,8.43
2023-08-12T08:15:17.112Z,8.48
2023-08-12T08:17:45.890Z,12.10
2023-08-12T08:20:14.322Z,8.43
2023-08-12T08:22:45.390Z,11.52
2023-08-12T08:25:16.107Z,19.75
2023-08-12T08:27:48.036Z,8.63
2023-08-12T08:30:16.519Z,9.32
2023-08-12T08:32:47.889Z,15.75
2023-08-12T08:35:16.660Z,13.68
2023-08-12T08:37:46.113Z,13.32
2023-08-12T08:40:14.808Z,6.25
2023-08-12T08:42:52.514Z,7.35
2023-08-12T08:45:25.199Z,16.75
2023-08-12T08:47:58.900Z,12.63
2023-08-12T08:50:31.512Z,8.05
2023-08-12T08:53:02.153Z,12.65
2023-08-12T08:55:35.756Z,19.58
2023-08-12T08:58:06.192Z,7.75
2023-08-12T09:00:37.810Z,9.63
2023-08-12T09:03:12.195Z,7.05
2023-08-12T09:05:42.161Z,10.48
2023-08-12T09:08:12.360Z,15.23
2023-08-12T09:10:42.587Z,16.60
2023-08-12T09:13:12.437Z,12.23
2023-08-12T09:15:40.884Z,12.02
2023-08-12T09:18:10.392Z,10.45
2023-08-12T09:20:40.777Z,8.13
2023-08-12T09:23:12.164Z,11.27
2023-08-12T09:25:45.264Z,17.60
2023-08-12T09:28:16.022Z,13.70
2023-08-12T09:30:47.558Z,18.13
2023-08-12T09:33:16.145Z,21.48
2023-08-12T09:35:45.653Z,16.98
2023-08-12T09:38:15.291Z,19.88
2023-08-12T09:40:44.028Z,20.85
2023-08-12T09:43:12.886Z,13.32
2023-08-12T09:45:51.656Z,17.52
2023-08-12T09:48:20.183Z,13.82
2023-08-12T09:50:51.066Z,11.82
2023-08-12T09:53:19.629Z,14.98
2023-08-12T09:55:50.217Z,17.35
2023-08-12T09:58:23.053Z,27.33
2023-08-12T10:00:54.610Z,11.13
2023-08-12T10:03:23.525Z,15.18
2023-08-12T10:05:55.357Z,9.35
2023-08-12T10:08:24.922Z,11.45
2023-08-12T10:11:07.267Z,18.38
2023-08-12T10:13:42.408Z,17.17
2023-08-12T10:16:13.078Z,14.55
2023-08-12T10:18:42.392Z,33.83
2023-08-12T10:21:13.034Z,13.02
2023-08-12T10:23:46.658Z,13.98
2023-08-12T10:26:17.716Z,19.10
2023-08-12T10:28:52.968Z,17.95
2023-08-12T10:31:25.006Z,13.52
2023-08-12T10:33:53.646Z,11.70
2023-08-12T10:36:23.867Z,18.92
2023-08-12T10:38:52.392Z,17.52
2023-08-12T10:41:23.104Z,13.32
2023-08-12T10:43:54.691Z,17.88
2023-08-12T10:46:33.458Z,8.10
2023-08-12T10:49:06.064Z,13.02
2023-08-12T10:51:48.599Z,17.30
2023-08-12T10:54:18.512Z,44.70
2023-08-12T10:57:18.870Z,8.52
2023-08-12T10:59:57.494Z,14.98
2023-08-12T11:02:34.076Z,20.63
2023-08-12T11:05:09.906Z,19.95
2023-08-12T11:07:46.577Z,21.80
2023-08-12T11:10:17.423Z,18.05
2023-08-12T11:12:56.811Z,11.60
2023-08-12T11:15:35.161Z,17.75
2023-08-12T11:18:11.028Z,26.50
2023-08-12T11:20:40.182Z,20.08
2023-08-12T11:23:10.260Z,22.08
2023-08-12T11:25:41.224Z,22.98
2023-08-12T11:28:10.648Z,9.57
2023-08-12T11:30:43.449Z,9.30
2023-08-12T11:33:14.169Z,9.98
2023-08-12T11:35:45.882Z,48.83
2023-08-12T11:38:14.531Z,9.27
2023-08-12T11:40:46.126Z,13.95
2023-08-12T11:43:14.758Z,9.25
2023-08-12T11:45:45.178Z,21.90
2023-08-12T11:48:15.269Z,36.75
2023-08-12T11:50:43.962Z,19.42
2023-08-12T11:53:12.651Z,13.85
2023-08-12T11:55:41.330Z,13.25
2023-08-12T11:58:09.861Z,6.25
2023-08-12T12:00:41.252Z,14.75
2023-08-12T12:03:09.611Z,7.93
2023-08-12T12:05:42.386Z,9.85
2023-08-12T12:08:11.145Z,14.30
2023-08-12T12:10:39.605Z,26.85
2023-08-12T12:13:10.296Z,15.18
2023-08-12T12:15:43.360Z,11.25
2023-08-12T12:18:13.034Z,18.00
2023-08-12T12:20:57.025Z,22.77
2023-08-12T12:23:30.390Z,6.05
2023-08-12T12:26:01.390Z,6.47
2023-08-12T12:28:29.910Z,21.85
2023-08-12T12:31:00.884Z,16.60
2023-08-12T12:33:29.536Z,32.95
2023-08-12T12:36:05.527Z,19.23
2023-08-12T12:38:35.334Z,7.20
2023-08-12T12:41:06.604Z,8.23
2023-08-12T12:43:37.913Z,8.25
2023-08-12T12:46:06.430Z,9.82
2023-08-12T12:48:35.122Z,9.85
2023-08-12T12:51:05.121Z,22.35
2023-08-12T12:53:33.561Z,47.67
2023-08-12T12:56:05.056Z,35.70
2023-08-12T12:58:34.378Z,14.98
2023-08-12T13:01:04.049Z,6.80
2023-08-12T13:03:39.203Z,24.83
2023-08-12T13:06:11.966Z,29.38
2023-08-12T13:08:43.210Z,9.90
2023-08-12T13:11:11.715Z,13.38
2023-08-12T13:13:42.096Z,24.73
2023-08-12T13:16:10.676Z,33.03
2023-08-12T13:18:39.382Z,20.33
2023-08-12T13:21:07.888Z,5.57
2023-08-12T13:23:37.708Z,18.90
2023-08-12T13:26:06.247Z,12.73
2023-08-12T13:28:38.071Z,65.22
2023-08-12T13:31:09.795Z,19.88
2023-08-12T13:33:41.731Z,28.33
2023-08-12T13:36:10.322Z,12.40
2023-08-12T13:38:40.698Z,34.65
2023-08-12T13:41:09.102Z,64.30
2023-08-12T13:43:37.531Z,48.03
2023-08-12T13:46:08.388Z,52.85
2023-08-12T13:48:39.788Z,48.90
2023-08-12T13:51:10.512Z,42.88
2023-08-12T13:53:42.553Z,26.30
2023-08-12T13:56:11.277Z,20.52
2023-08-12T13:58:39.711Z,20.45
2023-08-12T14:01:09.925Z,17.13
2023-08-12T14:03:38.603Z,25.65
2023-08-12T14:06:09.390Z,22.65
2023-08-12T14:08:39.267Z,13.10
2023-08-12T14:11:11.269Z,27.05
2023-08-12T14:13:39.880Z,16.95
2023-08-12T14:16:08.504Z,45.65
2023-08-12T14:18:36.884Z,14.57
2023-08-12T14:21:05.811Z,18.30
2023-08-12T14:23:34.313Z,21.17
2023-08-12T14:26:03.306Z,18.48
2023-08-12T14:28:33.196Z,7.68
2023-08-12T14:31:01.663Z,17.83
2023-08-12T14:33:31.198Z,6.88
2023-08-12T14:36:02.774Z,11.52
2023-08-12T14:38:31.602Z,9.68
2023-08-12T14:41:02.515Z,22.05
2023-08-12T14:43:33.660Z,39.92
2023-08-12T14:46:04.725Z,55.53
2023-08-12T14:48:36.119Z,16.85
2023-08-12T14:51:04.939Z,14.30
2023-08-12T14:53:35.232Z,18.00
2023-08-12T14:56:04.088Z,11.82
2023-08-12T14:58:33.785Z,12.20
2023-08-12T15:01:04.254Z,21.35
2023-08-12T15:03:33.330Z,30.75
2023-08-12T15:06:02.574Z,18.70
2023-08-12T15:08:32.695Z,44.22
2023-08-12T15:11:01.527Z,32.58
2023-08-12T15:13:29.918Z,23.67
2023-08-12T15:15:59.968Z,22.88
2023-08-12T15:18:29.908Z,29.15
2023-08-12T15:20:58.301Z,14.70
2023-08-12T15:23:26.745Z,14.20
2023-08-12T15:25:56.782Z,19.42
2023-08-12T15:28:25.575Z,17.70
2023-08-12T15:30:54.440Z,13.80
2023-08-12T15:33:24.439Z,25.15
2023-08-12T15:35:53.056Z,23.15
2023-08-12T15:38:22.055Z,16.52
2023-08-12T15:40:50.470Z,15.50
2023-08-12T15:43:21.386Z,17.33
2023-08-12T15:45:49.845Z,16.98
2023-08-12T15:48:20.811Z,39.97
2023-08-12T15:50:52.772Z,14.75
2023-08-12T15:53:21.458Z,17.45
2023-08-12T15:55:50.725Z,11.52
2023-08-12T15:58:20.170Z,10.55
2023-08-12T16:00:50.047Z,9.05
2023-08-12T16:03:18.805Z,31.45
2023-08-12T16:05:48.750Z,11.07
2023-08-12T16:08:20.784Z,15.82
2023-08-12T16:10:49.372Z,14.45
2023-08-12T16:13:19.597Z,30.75
2023-08-12T16:15:48.372Z,38.22
2023-08-12T16:18:18.080Z,69.57
2023-08-12T16:20:46.567Z,25.33
2023-08-12T16:23:16.162Z,22.48
2023-08-12T16:25:48.999Z,22.60
2023-08-12T16:28:17.417Z,22.83
2023-08-12T16:30:45.937Z,20.58
2023-08-12T16:33:14.793Z,11.30
2023-08-12T16:35:43.143Z,11.95
2023-08-12T16:38:11.661Z,11.85
2023-08-12T16:40:41.383Z,13.70
2023-08-12T16:43:12.352Z,16.77
2023-08-12T16:45:42.160Z,19.05
2023-08-12T16:48:10.742Z,18.40
2023-08-12T16:50:39.171Z,17.20
2023-08-12T16:53:09.337Z,15.45
2023-08-12T16:55:39.537Z,13.65
2023-08-12T16:58:08.023Z,12.38
2023-08-12T17:00:37.853Z,14.95
2023-08-12T17:03:08.378Z,16.10
2023-08-12T17:05:36.826Z,12.77
2023-08-12T17:08:07.070Z,25.77
2023-08-12T17:10:39.769Z,43.88
2023-08-12T17:13:08.250Z,35.92
2023-08-12T17:15:38.267Z,52.03
2023-08-12T17:18:11.289Z,46.58
2023-08-12T17:20:39.778Z,28.52
2023-08-12T17:23:10.737Z,50.67
2023-08-12T17:25:39.233Z,44.10
2023-08-12T17:28:10.331Z,192.98
2023-08-12T17:30:42.730Z,226.63
2023-08-12T17:33:13.938Z,202.15
2023-08-12T17:35:42.555Z,159.13
2023-08-12T17:38:12.175Z,181.98
2023-08-12T17:40:40.686Z,155.02
2023-08-12T17:43:10.463Z,126.18
2023-08-12T17:45:45.438Z,108.22
2023-08-12T17:48:13.839Z,104.82
2023-08-12T17:50:42.453Z,85.07
2023-08-12T17:53:10.964Z,66.72
2023-08-12T17:55:39.558Z,49.88
2023-08-12T17:58:08.165Z,78.38
2023-08-12T18:00:36.666Z,69.55
2023-08-12T18:03:09.715Z,79.95
2023-08-12T18:05:41.328Z,75.65
2023-08-12T18:08:09.833Z,99.38
2023-08-12T18:10:40.064Z,60.35
2023-08-12T18:13:09.128Z,48.50
2023-08-12T18:15:42.178Z,50.45
2023-08-12T18:18:12.109Z,105.25
2023-08-12T18:20:40.851Z,69.47
2023-08-12T18:23:09.554Z,62.20
2023-08-12T18:25:39.496Z,40.08
2023-08-12T18:28:08.234Z,31.23
2023-08-12T18:30:36.773Z,42.63
2023-08-12T18:33:07.154Z,77.32
2023-08-12T18:35:38.641Z,73.10
2023-08-12T18:38:07.349Z,42.30
2023-08-12T18:40:35.977Z,30.92
2023-08-12T18:43:04.779Z,42.60
2023-08-12T18:45:33.188Z,54.22
2023-08-12T18:48:02.613Z,85.20
2023-08-12T18:50:31.169Z,163.65
2023-08-12T18:53:02.521Z,92.18
2023-08-12T18:55:30.906Z,74.80
2023-08-12T18:58:01.869Z,67.80
2023-08-12T19:00:30.324Z,48.70
2023-08-12T19:03:00.292Z,40.88
2023-08-12T19:05:28.953Z,55.45
2023-08-12T19:07:59.304Z,60.40
2023-08-12T19:10:29.308Z,48.78
2023-08-12T19:12:58.249Z,67.63
2023-08-12T19:15:26.774Z,84.50
2023-08-12T19:17:55.143Z,88.10
2023-08-12T19:20:24.809Z,92.35
2023-08-12T19:22:54.558Z,105.78
2023-08-12T19:25:23.328Z,104.75
2023-08-12T19:27:53.173Z,105.43
2023-08-12T19:30:22.318Z,89.75
2023-08-12T19:32:52.119Z,95.55
2023-08-12T19:35:26.384Z,69.85
2023-08-12T19:37:59.955Z,82.07
2023-08-12T19:40:29.503Z,72.70
2023-08-12T19:42:59.262Z,64.43
2023-08-12T19:45:28.959Z,65.85
2023-08-12T19:47:57.398Z,67.57
2023-08-12T19:50:26.002Z,61.75
2023-08-12T19:52:54.388Z,72.25
2023-08-12T19:55:23.019Z,90.70
2023-08-12T19:57:51.481Z,65.90
2023-08-12T20:00:21.474Z,49.95
2023-08-12T20:02:50.887Z,48.28
2023-08-12T20:05:20.714Z,55.72
2023-08-12T20:07:50.827Z,53.55
2023-08-12T20:10:23.108Z,52.45
2023-08-12T20:12:52.367Z,37.08
2023-08-12T20:15:22.414Z,47.03
2023-08-12T20:17:51.128Z,40.15
2023-08-12T20:20:19.935Z,36.03
2023-08-12T20:25:23.189Z,33.38
2023-08-12T20:27:53.758Z,39.42
2023-08-12T20:30:24.333Z,33.40
2023-08-12T20:32:52.969Z,32.20
2023-08-12T20:35:21.459Z,31.85
2023-08-12T20:37:53.084Z,40.40
2023-08-12T20:40:24.725Z,79.80
2023-08-12T20:42:53.176Z,46.03
2023-08-12T20:45:21.908Z,39.25
2023-08-12T20:47:53.153Z,25.40
2023-08-12T20:50:24.482Z,24.80
2023-08-12T20:52:52.993Z,21.20
2023-08-12T20:55:21.357Z,28.77
2023-08-12T20:57:53.653Z,22.98
2023-08-12T21:00:22.351Z,24.85
2023-08-12T21:02:52.315Z,27.17
2023-08-12T21:05:21.228Z,26.05
2023-08-12T21:07:49.734Z,21.88
2023-08-12T21:10:18.620Z,25.77
2023-08-12T21:12:48.157Z,14.80
2023-08-12T21:15:16.676Z,13.18
2023-08-12T21:17:45.163Z,18.17
2023-08-12T21:20:17.990Z,13.40
2023-08-12T21:22:50.127Z,17.02
2023-08-12T21:25:20.581Z,21.13
2023-08-12T21:27:48.975Z,16.95
2023-08-12T21:30:18.109Z,23.42
2023-08-12T21:32:46.587Z,20.55
2023-08-12T21:35:15.038Z,24.10
2023-08-12T21:37:44.908Z,31.02
2023-08-12T21:40:14.008Z,28.42
2023-08-12T21:42:43.686Z,16.45
2023-08-12T21:45:13.218Z,21.77
2023-08-12T21:47:43.537Z,17.05
2023-08-12T21:50:14.812Z,13.07
2023-08-12T21:52:44.747Z,10.82
2023-08-12T21:55:14.658Z,12.13
2023-08-12T21:57:44.992Z,13.20
2023-08-12T22:00:15.465Z,19.60
2023-08-12T22:02:46.163Z,15.68
2023-08-12T22:05:19.115Z,22.90
2023-08-12T22:07:48.979Z,14.68
2023-08-12T22:10:17.504Z,19.77
2023-08-12T22:12:46.115Z,15.30
2023-08-12T22:15:14.570Z,15.02
2023-08-12T22:17:43.554Z,15.02
2023-08-12T22:20:15.010Z,16.73
2023-08-12T22:22:45.893Z,14.30
2023-08-12T22:25:16.185Z,14.00
2023-08-12T22:27:44.616Z,19.70
2023-08-12T22:30:13.489Z,19.90
2023-08-12T22:32:45.190Z,21.08
2023-08-12T22:35:16.835Z,27.77
2023-08-12T22:37:45.389Z,19.92
2023-08-12T22:40:15.219Z,22.27
2023-08-12T22:42:44.830Z,19.33
2023-08-12T22:45:15.029Z,24.48
2023-08-12T22:47:46.357Z,17.20
2023-08-12T22:50:15.196Z,17.25
2023-08-12T22:52:44.532Z,22.70
2023-08-12T22:55:13.583Z,19.30
2023-08-12T22:57:45.916Z,19.65
2023-08-12T23:00:17.651Z,13.30
2023-08-12T23:02:48.967Z,17.27
2023-08-12T23:05:17.897Z,15.30
2023-08-12T23:07:49.031Z,16.73
2023-08-12T23:10:17.575Z,19.73
2023-08-12T23:12:47.335Z,17.95
2023-08-12T23:15:16.627Z,15.20
2023-08-12T23:17:45.291Z,17.60
2023-08-12T23:20:14.872Z,18.27
2023-08-12T23:22:45.427Z,14.45
2023-08-12T23:25:14.581Z,22.95
2023-08-12T23:27:43.092Z,16.80
2023-08-12T23:30:15.555Z,19.83
2023-08-12T23:32:45.586Z,14.55
2023-08-12T23:35:19.092Z,16.33
2023-08-12T23:37:48.909Z,16.25
2023-08-12T23:40:17.927Z,16.98
2023-08-12T23:42:47.766Z,13.57
2023-08-12T23:45:17.603Z,13.75
2023-08-12T23:47:46.784Z,15.30
2023-08-12T23:50:17.492Z,16.23
2023-08-12T23:52:48.518Z,12.27
2023-08-12T23:55:17.251Z,14.90
2023-08-12T23:57:45.684Z,16.70
